createdAt,value
2018-07-12T00:02:14.265Z,16.10
2018-07-12T00:04:41.433Z,16.10
2018-07-12T00:07:08.608Z,16.10
2018-07-12T00:09:35.760Z,16.10
2018-07-12T00:12:02.919Z,16.10
2018-07-12T00:14:30.111Z,16.10
2018-07-12T00:16:57.298Z,16.10
2018-07-12T00:19:24.470Z,16.10
2018-07-12T00:21:51.653Z,16.00
2018-07-12T00:24:18.824Z,16.00
2018-07-12T00:26:46.004Z,16.00
2018-07-12T00:29:13.209Z,16.00
2018-07-12T00:31:40.401Z,15.90
2018-07-12T00:34:07.552Z,15.90
2018-07-12T00:36:34.753Z,15.90
2018-07-12T00:39:01.925Z,15.90
2018-07-12T00:43:56.564Z,15.90
2018-07-12T00:46:23.738Z,15.80
2018-07-12T00:48:50.913Z,15.80
2018-07-12T00:51:18.070Z,15.80
2018-07-12T00:53:45.240Z,15.70
2018-07-12T00:56:12.414Z,15.80
2018-07-12T00:58:39.580Z,15.70
2018-07-12T01:01:06.744Z,15.70
2018-07-12T01:03:33.912Z,15.70
2018-07-12T01:06:01.093Z,15.60
2018-07-12T01:08:28.278Z,15.60
2018-07-12T01:10:55.708Z,15.60
2018-07-12T01:13:22.892Z,15.60
2018-07-12T01:15:50.053Z,15.60
2018-07-12T01:18:17.233Z,15.60
2018-07-12T01:20:44.401Z,15.60
2018-07-12T01:23:11.572Z,15.50
2018-07-12T01:25:38.740Z,15.50
2018-07-12T01:28:05.904Z,15.50
2018-07-12T01:30:33.113Z,15.60
2018-07-12T01:33:00.299Z,15.60
2018-07-12T01:35:27.462Z,15.60
2018-07-12T01:37:54.656Z,15.60
2018-07-12T01:40:21.848Z,15.70
2018-07-12T01:42:49.050Z,15.70
2018-07-12T01:45:16.212Z,15.70
2018-07-12T01:47:43.402Z,15.70
2018-07-12T01:50:10.570Z,15.70
2018-07-12T01:52:37.770Z,15.70
2018-07-12T01:55:04.945Z,15.70
2018-07-12T01:57:32.120Z,15.70
2018-07-12T01:59:59.343Z,15.60
2018-07-12T02:02:26.517Z,15.60
2018-07-12T02:04:53.697Z,15.60
2018-07-12T02:07:20.875Z,15.60
2018-07-12T02:09:48.872Z,15.60
2018-07-12T02:12:16.043Z,15.60
2018-07-12T02:14:43.221Z,15.60
2018-07-12T02:17:10.448Z,15.70
2018-07-12T02:19:37.620Z,15.70
2018-07-12T02:22:04.801Z,15.70
2018-07-12T02:24:31.976Z,15.70
2018-07-12T02:26:59.141Z,15.60
2018-07-12T02:29:26.323Z,15.60
2018-07-12T02:31:53.473Z,15.60
2018-07-12T02:34:20.777Z,15.50
2018-07-12T02:36:47.949Z,15.50
2018-07-12T02:39:15.130Z,15.40
2018-07-12T02:41:42.305Z,15.40
2018-07-12T02:44:09.535Z,15.40
2018-07-12T02:46:36.736Z,15.40
2018-07-12T02:49:03.920Z,15.40
2018-07-12T02:51:31.081Z,15.30
2018-07-12T02:53:58.299Z,15.20
2018-07-12T02:56:25.501Z,15.20
2018-07-12T02:58:53.077Z,15.30
2018-07-12T03:01:20.228Z,15.30
2018-07-12T03:03:47.408Z,15.30
2018-07-12T03:06:14.644Z,15.30
2018-07-12T03:08:41.820Z,15.30
2018-07-12T03:11:09.025Z,15.30
2018-07-12T03:13:36.191Z,15.20
2018-07-12T03:16:03.409Z,15.20
2018-07-12T03:18:30.596Z,15.20
2018-07-12T03:20:57.805Z,15.20
2018-07-12T03:23:24.969Z,15.10
2018-07-12T03:25:52.141Z,15.20
2018-07-12T03:28:19.325Z,15.20
2018-07-12T03:30:46.508Z,15.30
2018-07-12T03:33:13.685Z,15.20
2018-07-12T03:35:40.885Z,15.20
2018-07-12T03:38:08.052Z,15.10
2018-07-12T03:40:35.307Z,15.10
2018-07-12T03:43:02.435Z,15.10
2018-07-12T03:45:29.612Z,15.10
2018-07-12T03:47:56.772Z,15.20
2018-07-12T03:50:23.930Z,15.10
2018-07-12T03:52:51.131Z,15.10
2018-07-12T03:55:18.307Z,15.20
2018-07-12T03:57:45.480Z,15.20
2018-07-12T04:00:12.697Z,15.40
2018-07-12T04:02:39.874Z,15.40
2018-07-12T04:05:07.029Z,15.40
2018-07-12T04:07:34.228Z,15.40
2018-07-12T04:10:01.393Z,15.40
2018-07-12T04:12:28.657Z,15.50
2018-07-12T04:14:55.824Z,15.60
2018-07-12T04:17:29.832Z,15.60
2018-07-12T04:19:58.067Z,15.70
2018-07-12T04:22:25.845Z,15.80
2018-07-12T04:24:53.007Z,15.80
2018-07-12T04:27:20.620Z,15.90
2018-07-12T04:29:48.593Z,16.00
2018-07-12T04:32:16.278Z,16.00
2018-07-12T04:34:43.460Z,16.00
2018-07-12T04:37:10.663Z,16.10
2018-07-12T04:39:37.828Z,16.10
2018-07-12T04:42:04.992Z,16.20
2018-07-12T04:44:32.400Z,16.20
2018-07-12T04:46:59.575Z,16.20
2018-07-12T04:49:26.776Z,16.20
2018-07-12T04:51:55.221Z,16.20
2018-07-12T04:54:22.685Z,16.20
2018-07-12T04:56:49.906Z,16.30
2018-07-12T04:59:18.045Z,16.30
2018-07-12T05:01:45.696Z,16.30
2018-07-12T05:04:12.892Z,16.40
2018-07-12T05:06:40.087Z,16.40
2018-07-12T05:09:08.699Z,16.40
2018-07-12T05:11:35.882Z,16.40
2018-07-12T05:14:03.169Z,16.40
2018-07-12T05:16:30.526Z,16.40
2018-07-12T05:18:57.720Z,16.50
2018-07-12T05:21:24.890Z,16.50
2018-07-12T05:23:52.052Z,16.60
2018-07-12T05:26:19.279Z,16.60
2018-07-12T05:28:46.456Z,16.60
2018-07-12T05:31:13.633Z,16.60
2018-07-12T05:33:40.806Z,16.70
2018-07-12T05:37:15.359Z,16.70
2018-07-12T05:39:43.597Z,16.70
2018-07-12T05:42:11.784Z,16.70
2018-07-12T05:44:39.980Z,16.70
2018-07-12T05:47:08.146Z,16.80
2018-07-12T05:49:36.293Z,16.90
2018-07-12T05:52:04.612Z,16.90
2018-07-12T05:54:32.748Z,16.80
2018-07-12T05:57:00.910Z,16.90
2018-07-12T05:59:29.141Z,16.90
2018-07-12T06:02:08.820Z,17.00
2018-07-12T06:04:36.975Z,17.00
2018-07-12T06:07:05.229Z,17.00
2018-07-12T06:09:33.402Z,17.10
2018-07-12T06:12:01.536Z,17.00
2018-07-12T06:14:29.723Z,17.10
2018-07-12T06:16:57.930Z,17.20
2018-07-12T06:19:26.101Z,17.10
2018-07-12T06:21:54.280Z,17.10
2018-07-12T06:24:22.423Z,17.10
2018-07-12T06:26:50.553Z,17.40
2018-07-12T06:29:18.722Z,17.30
2018-07-12T06:31:46.861Z,17.50
2018-07-12T06:34:15.024Z,17.60
2018-07-12T06:36:43.181Z,17.70
2018-07-12T06:39:11.668Z,17.80
2018-07-12T06:41:39.918Z,17.80
2018-07-12T06:44:08.152Z,17.80
2018-07-12T06:46:36.285Z,18.00
2018-07-12T06:49:04.441Z,18.00
2018-07-12T06:51:32.911Z,18.00
2018-07-12T06:54:01.166Z,18.00
2018-07-12T06:56:29.388Z,17.90
2018-07-12T06:58:57.632Z,18.00
2018-07-12T07:01:25.808Z,18.10
2018-07-12T07:03:54.052Z,18.20
2018-07-12T07:06:22.210Z,18.10
2018-07-12T07:08:50.390Z,18.20
2018-07-12T07:13:46.926Z,18.30
2018-07-12T07:16:15.121Z,18.70
2018-07-12T07:18:43.311Z,18.40
2018-07-12T07:23:39.595Z,18.40
2018-07-12T07:26:07.752Z,18.50
2018-07-12T07:28:35.925Z,18.60
2018-07-12T07:31:04.218Z,18.70
2018-07-12T07:33:32.464Z,18.50
2018-07-12T07:36:00.617Z,18.60
2018-07-12T07:38:28.848Z,18.60
2018-07-12T07:40:57.008Z,18.80
2018-07-12T07:43:25.192Z,18.70
2018-07-12T07:45:53.339Z,18.70
2018-07-12T07:48:22.022Z,18.80
2018-07-12T07:50:50.267Z,18.90
2018-07-12T07:53:18.423Z,18.80
2018-07-12T07:55:46.620Z,18.90
2018-07-12T07:58:14.770Z,19.00
2018-07-12T08:00:42.957Z,18.90
2018-07-12T08:03:11.120Z,19.20
2018-07-12T08:05:39.261Z,19.20
2018-07-12T08:08:07.416Z,19.40
2018-07-12T08:10:35.588Z,19.60
2018-07-12T08:13:03.831Z,19.60
2018-07-12T08:15:31.974Z,19.70
2018-07-12T08:18:00.144Z,19.50
2018-07-12T08:20:28.314Z,19.40
2018-07-12T08:22:56.525Z,19.50
2018-07-12T08:25:24.700Z,19.70
2018-07-12T08:28:04.380Z,19.80
2018-07-12T08:30:32.546Z,19.90
2018-07-12T08:33:00.688Z,20.00
2018-07-12T08:35:28.961Z,20.00
2018-07-12T08:37:57.227Z,20.20
2018-07-12T08:40:25.393Z,20.30
2018-07-12T08:42:53.577Z,20.20
2018-07-12T08:45:21.743Z,20.30
2018-07-12T08:47:49.896Z,20.40
2018-07-12T08:50:18.099Z,20.40
2018-07-12T08:52:46.273Z,20.20
2018-07-12T08:55:14.431Z,20.40
2018-07-12T08:57:42.608Z,20.40
2018-07-12T09:00:10.748Z,20.40
2018-07-12T09:02:38.927Z,20.10
2018-07-12T09:05:07.202Z,20.20
2018-07-12T09:12:31.197Z,20.40
2018-07-12T09:14:59.549Z,20.50
2018-07-12T09:17:27.837Z,20.60
2018-07-12T09:19:56.268Z,20.40
2018-07-12T09:22:24.467Z,20.40
2018-07-12T09:24:52.676Z,20.40
2018-07-12T09:27:20.885Z,20.60
2018-07-12T09:29:49.066Z,20.70
2018-07-12T09:32:17.195Z,20.90
2018-07-12T09:34:45.453Z,20.80
2018-07-12T09:37:13.609Z,20.70
2018-07-12T09:39:41.805Z,20.60
2018-07-12T09:42:09.926Z,20.70
2018-07-12T09:44:38.057Z,21.00
2018-07-12T09:47:06.293Z,20.90
2018-07-12T09:49:34.435Z,20.90
2018-07-12T09:52:02.561Z,20.80
2018-07-12T09:54:30.697Z,20.90
2018-07-12T09:57:10.313Z,21.10
2018-07-12T09:59:39.403Z,21.40
2018-07-12T10:02:12.958Z,21.30
2018-07-12T10:07:14.400Z,21.20
2018-07-12T10:09:48.082Z,21.20
2018-07-12T10:12:21.717Z,21.30
2018-07-12T10:14:50.690Z,21.30
2018-07-12T10:17:24.365Z,21.50
2018-07-12T10:19:52.655Z,21.50
2018-07-12T10:22:20.806Z,21.10
2018-07-12T10:27:16.926Z,20.90
2018-07-12T10:29:45.095Z,20.90
2018-07-12T10:32:13.217Z,21.10
2018-07-12T10:34:41.342Z,21.10
2018-07-12T10:37:09.512Z,21.10
2018-07-12T10:39:37.633Z,21.10
2018-07-12T10:42:05.889Z,20.90
2018-07-12T10:44:34.115Z,20.90
2018-07-12T10:47:02.388Z,21.30
2018-07-12T10:49:30.555Z,21.30
2018-07-12T10:51:58.732Z,21.40
2018-07-12T10:54:26.905Z,21.70
2018-07-12T10:56:55.045Z,21.80
2018-07-12T10:59:23.204Z,21.70
2018-07-12T11:01:51.323Z,21.50
2018-07-12T11:04:19.487Z,21.70
2018-07-12T11:06:47.640Z,21.90
2018-07-12T11:09:15.777Z,22.00
2018-07-12T11:11:43.900Z,22.10
2018-07-12T11:14:12.039Z,22.00
2018-07-12T11:16:40.144Z,22.00
2018-07-12T11:19:08.288Z,22.00
2018-07-12T11:21:36.429Z,21.90
2018-07-12T11:24:04.857Z,21.80
2018-07-12T11:26:32.997Z,21.90
2018-07-12T11:29:01.156Z,22.00
2018-07-12T11:31:29.312Z,21.70
2018-07-12T11:33:57.458Z,21.50
2018-07-12T11:36:25.680Z,21.50
2018-07-12T11:38:53.935Z,21.60
2018-07-12T11:41:22.048Z,21.70
2018-07-12T11:43:50.323Z,21.80
2018-07-12T11:46:18.751Z,22.20
2018-07-12T11:48:46.917Z,22.20
2018-07-12T11:51:15.085Z,22.50
2018-07-12T11:53:43.243Z,22.50
2018-07-12T11:56:11.368Z,22.70
2018-07-12T11:58:39.517Z,22.80
2018-07-12T12:01:07.707Z,22.60
2018-07-12T12:03:35.893Z,22.40
2018-07-12T12:06:04.131Z,22.30
2018-07-12T12:08:32.340Z,22.40
2018-07-12T12:11:00.504Z,22.60
2018-07-12T12:13:28.696Z,22.60
2018-07-12T12:15:56.848Z,23.00
2018-07-12T12:18:25.269Z,23.10
2018-07-12T12:20:53.425Z,23.10
2018-07-12T12:23:21.565Z,23.20
2018-07-12T12:25:49.761Z,23.30
2018-07-12T12:28:17.945Z,23.10
2018-07-12T12:30:46.065Z,22.90
2018-07-12T12:33:14.214Z,22.90
2018-07-12T12:35:42.343Z,23.10
2018-07-12T12:40:38.653Z,23.20
2018-07-12T12:43:06.853Z,23.20
2018-07-12T12:45:34.996Z,23.20
2018-07-12T12:48:03.128Z,23.20
2018-07-12T12:50:31.286Z,23.10
2018-07-12T12:52:59.500Z,23.10
2018-07-12T12:55:27.779Z,23.20
2018-07-12T12:57:55.932Z,23.40
2018-07-12T13:00:24.052Z,23.50
2018-07-12T13:02:52.168Z,23.30
2018-07-12T13:05:20.424Z,23.20
2018-07-12T13:07:48.672Z,23.00
2018-07-12T13:10:16.885Z,23.20
2018-07-12T13:12:45.024Z,23.30
2018-07-12T13:15:13.152Z,23.80
2018-07-12T13:17:41.340Z,23.80
2018-07-12T13:20:09.548Z,23.90
2018-07-12T13:22:37.669Z,24.00
2018-07-12T13:25:06.322Z,24.10
2018-07-12T13:27:34.509Z,24.10
2018-07-12T13:30:02.672Z,24.20
2018-07-12T13:32:30.815Z,24.20
2018-07-12T13:34:58.992Z,24.40
2018-07-12T13:37:27.172Z,24.10
2018-07-12T13:39:55.315Z,24.20
2018-07-12T13:44:51.458Z,24.00
2018-07-12T13:47:19.606Z,24.10
2018-07-12T13:49:47.744Z,24.10
2018-07-12T13:52:16.845Z,24.40
2018-07-12T13:54:45.828Z,24.40
2018-07-12T13:57:14.663Z,24.40
2018-07-12T13:59:43.274Z,24.30
2018-07-12T14:02:11.971Z,24.30
2018-07-12T14:04:40.628Z,24.80
2018-07-12T14:07:09.408Z,25.40
2018-07-12T14:09:37.628Z,26.10
2018-07-12T14:12:05.856Z,25.90
2018-07-12T14:14:34.670Z,26.80
2018-07-12T14:17:02.905Z,26.80
2018-07-12T14:19:31.095Z,26.90
2018-07-12T14:21:59.387Z,27.40
2018-07-12T14:24:27.546Z,27.70
2018-07-12T14:26:55.870Z,27.30
2018-07-12T14:29:24.141Z,27.00
2018-07-12T14:31:52.509Z,26.70
2018-07-12T14:34:20.779Z,27.00
2018-07-12T14:36:48.925Z,26.60
2018-07-12T14:39:17.040Z,26.90
2018-07-12T14:41:45.273Z,27.10
2018-07-12T14:44:13.466Z,27.50
2018-07-12T14:46:41.806Z,27.40
2018-07-12T14:49:09.988Z,27.30
2018-07-12T14:51:38.154Z,27.20
2018-07-12T14:54:06.332Z,27.80
2018-07-12T14:56:34.969Z,27.90
2018-07-12T15:01:31.239Z,27.80
2018-07-12T15:03:59.341Z,28.20
2018-07-12T15:06:27.513Z,28.50
2018-07-12T15:08:55.746Z,28.90
2018-07-12T15:11:23.902Z,29.00
2018-07-12T15:13:52.094Z,28.90
2018-07-12T15:16:20.257Z,29.30
2018-07-12T15:18:48.476Z,29.40
2018-07-12T15:21:16.767Z,29.30
2018-07-12T15:23:44.896Z,29.20
2018-07-12T15:26:13.073Z,29.40
2018-07-12T15:28:41.274Z,29.30
2018-07-12T15:31:09.448Z,29.80
2018-07-12T15:33:37.558Z,30.10
2018-07-12T15:36:05.714Z,30.10
2018-07-12T15:38:33.887Z,30.00
2018-07-12T15:41:02.042Z,30.50
2018-07-12T15:43:30.232Z,30.60
2018-07-12T15:45:58.375Z,31.00
2018-07-12T15:48:26.530Z,31.20
2018-07-12T15:50:54.661Z,31.10
2018-07-12T15:53:22.834Z,29.50
2018-07-12T15:55:50.968Z,29.50
2018-07-12T15:58:19.124Z,29.20
2018-07-12T16:00:47.280Z,29.00
2018-07-12T16:03:15.625Z,30.20
2018-07-12T16:05:43.816Z,29.40
2018-07-12T16:08:12.209Z,29.30
2018-07-12T16:10:40.366Z,29.50
2018-07-12T16:13:08.513Z,30.50
2018-07-12T16:15:36.695Z,30.50
2018-07-12T16:18:04.839Z,31.10
2018-07-12T16:20:33.035Z,31.60
2018-07-12T16:23:01.156Z,32.60
2018-07-12T16:25:29.548Z,31.80
2018-07-12T16:27:57.976Z,31.60
2018-07-12T16:30:26.194Z,31.30
2018-07-12T16:32:54.341Z,32.10
2018-07-12T16:35:22.571Z,32.60
2018-07-12T16:37:50.688Z,32.60
2018-07-12T16:40:19.144Z,32.00
2018-07-12T16:42:47.476Z,31.40
2018-07-12T16:45:15.622Z,32.60
2018-07-12T16:47:43.810Z,32.60
2018-07-12T16:50:12.103Z,32.70
2018-07-12T16:52:40.287Z,33.10
2018-07-12T16:55:08.513Z,32.90
2018-07-12T16:57:36.668Z,33.30
2018-07-12T17:00:05.410Z,31.60
2018-07-12T17:02:33.825Z,31.60
2018-07-12T17:05:02.078Z,32.20
2018-07-12T17:07:30.351Z,32.40
2018-07-12T17:09:58.684Z,32.70
2018-07-12T17:12:26.863Z,32.80
2018-07-12T17:14:55.290Z,33.50
2018-07-12T17:17:23.480Z,33.80
2018-07-12T17:19:51.685Z,34.00
2018-07-12T17:22:20.021Z,33.90
2018-07-12T17:24:48.236Z,32.90
2018-07-12T17:27:16.618Z,32.70
2018-07-12T17:29:44.861Z,32.80
2018-07-12T17:32:12.993Z,31.90
2018-07-12T17:34:41.195Z,32.00
2018-07-12T17:37:09.331Z,32.70
2018-07-12T17:39:37.495Z,32.80
2018-07-12T17:42:05.657Z,32.40
2018-07-12T17:44:33.877Z,32.70
2018-07-12T17:47:02.026Z,32.20
2018-07-12T17:49:30.271Z,31.40
2018-07-12T17:51:58.451Z,31.50
2018-07-12T17:54:26.620Z,31.80
2018-07-12T17:56:54.788Z,31.50
2018-07-12T17:59:22.934Z,31.40
2018-07-12T18:01:51.075Z,30.90
2018-07-12T18:04:19.240Z,29.40
2018-07-12T18:06:47.393Z,29.20
2018-07-12T18:09:15.877Z,29.90
2018-07-12T18:11:44.017Z,30.50
2018-07-12T18:14:12.276Z,30.00
2018-07-12T18:16:40.387Z,29.00
2018-07-12T18:19:08.663Z,29.00
2018-07-12T18:21:36.933Z,29.30
2018-07-12T18:24:06.212Z,29.30
2018-07-12T18:26:34.446Z,28.60
2018-07-12T18:29:02.719Z,27.20
2018-07-12T18:31:30.896Z,27.30
2018-07-12T18:33:59.067Z,27.10
2018-07-12T18:36:27.221Z,26.80
2018-07-12T18:38:55.396Z,26.50
2018-07-12T18:41:23.674Z,26.30
2018-07-12T18:43:51.899Z,25.60
2018-07-12T18:46:20.121Z,24.80
2018-07-12T18:48:48.300Z,24.70
2018-07-12T18:51:16.490Z,23.60
2018-07-12T18:53:44.652Z,22.70
2018-07-12T18:56:12.836Z,22.60
2018-07-12T18:58:41.058Z,22.10
2018-07-12T19:01:09.267Z,21.80
2018-07-12T19:06:05.501Z,21.40
2018-07-12T19:08:33.698Z,21.40
2018-07-12T19:11:01.854Z,21.20
2018-07-12T19:13:30.319Z,21.10
2018-07-12T19:15:58.480Z,20.90
2018-07-12T19:18:26.629Z,20.80
2018-07-12T19:20:54.867Z,20.80
2018-07-12T19:23:23.307Z,20.80
2018-07-12T19:25:51.448Z,20.50
2018-07-12T19:28:19.595Z,20.50
2018-07-12T19:30:47.705Z,20.50
2018-07-12T19:33:15.899Z,20.40
2018-07-12T19:35:44.021Z,20.40
2018-07-12T19:38:12.137Z,20.20
2018-07-12T19:40:41.093Z,19.90
2018-07-12T19:43:09.240Z,19.90
2018-07-12T19:45:37.357Z,19.90
2018-07-12T19:48:05.517Z,19.90
2018-07-12T19:50:33.664Z,20.00
2018-07-12T19:53:01.793Z,20.00
2018-07-12T19:55:29.957Z,20.00
2018-07-12T19:57:58.079Z,20.00
2018-07-12T20:00:26.209Z,20.00
2018-07-12T20:02:54.382Z,20.10
2018-07-12T20:05:22.565Z,20.10
2018-07-12T20:07:50.750Z,20.00
2018-07-12T20:10:18.865Z,20.00
2018-07-12T20:12:47.017Z,20.00
2018-07-12T20:15:15.255Z,20.10
2018-07-12T20:17:43.424Z,20.10
2018-07-12T20:20:11.540Z,20.10
2018-07-12T20:22:39.711Z,20.10
2018-07-12T20:25:07.833Z,20.10
2018-07-12T20:27:35.989Z,20.10
2018-07-12T20:30:04.648Z,20.10
2018-07-12T20:32:32.909Z,20.10
2018-07-12T20:35:01.033Z,20.10
2018-07-12T20:37:29.195Z,20.10
2018-07-12T20:39:57.392Z,20.00
2018-07-12T20:42:25.551Z,20.00
2018-07-12T20:44:53.744Z,20.00
2018-07-12T20:47:21.912Z,20.10
2018-07-12T20:49:50.058Z,20.00
2018-07-12T20:52:18.215Z,20.00
2018-07-12T20:54:46.395Z,19.90
2018-07-12T20:57:14.508Z,19.90
2018-07-12T20:59:42.664Z,19.90
2018-07-12T21:02:10.805Z,20.00
2018-07-12T21:04:39.018Z,19.90
2018-07-12T21:07:07.152Z,20.00
2018-07-12T21:12:03.201Z,19.90
2018-07-12T21:14:31.332Z,20.00
2018-07-12T21:16:59.527Z,19.90
2018-07-12T21:19:27.663Z,19.90
2018-07-12T21:21:56.091Z,19.90
2018-07-12T21:24:24.224Z,19.90
2018-07-12T21:26:52.382Z,19.80
2018-07-12T21:29:20.710Z,19.80
2018-07-12T21:31:48.883Z,19.80
2018-07-12T21:36:45.053Z,19.60
2018-07-12T21:41:41.089Z,19.50
2018-07-12T21:44:09.264Z,19.50
2018-07-12T21:46:37.398Z,19.50
2018-07-12T21:49:05.552Z,19.50
2018-07-12T21:51:33.709Z,19.50
2018-07-12T21:54:01.874Z,19.50
2018-07-12T21:56:30.045Z,19.50
2018-07-12T21:59:00.134Z,19.50
2018-07-12T22:01:29.904Z,19.40
2018-07-12T22:03:59.882Z,19.30
2018-07-12T22:08:12.647Z,19.30
2018-07-12T22:10:44.123Z,19.20
2018-07-12T22:13:16.504Z,19.20
2018-07-12T22:15:50.122Z,19.20
2018-07-12T22:18:22.723Z,19.20
2018-07-12T22:20:57.952Z,19.20
2018-07-12T22:23:28.033Z,19.10
2018-07-12T22:25:57.151Z,19.10
2018-07-12T22:28:29.383Z,19.10
2018-07-12T22:30:58.625Z,19.10
2018-07-12T22:33:29.443Z,19.00
2018-07-12T22:35:57.715Z,19.10
2018-07-12T22:38:27.050Z,19.10
2018-07-12T22:40:58.034Z,19.10
2018-07-12T22:43:27.449Z,19.10
2018-07-12T22:45:57.660Z,19.10
2018-07-12T22:48:27.364Z,19.10
2018-07-12T22:50:57.846Z,19.10
2018-07-12T22:53:29.299Z,19.20
2018-07-12T22:56:00.454Z,19.20
2018-07-12T22:58:31.610Z,19.20
2018-07-12T23:01:02.038Z,19.20
2018-07-12T23:03:31.552Z,19.20
2018-07-12T23:06:01.757Z,19.20
2018-07-12T23:08:31.902Z,19.20
2018-07-12T23:11:01.540Z,19.20
2018-07-12T23:13:32.301Z,19.20
2018-07-12T23:16:02.497Z,19.20
2018-07-12T23:18:32.738Z,19.20
2018-07-12T23:21:02.483Z,19.20
2018-07-12T23:23:32.036Z,19.20
2018-07-12T23:26:02.200Z,19.10
2018-07-12T23:28:32.253Z,19.20
2018-07-12T23:31:02.650Z,19.10
2018-07-12T23:33:32.499Z,19.20
2018-07-12T23:36:02.152Z,19.10
2018-07-12T23:38:32.018Z,19.10
2018-07-12T23:41:01.703Z,19.10
2018-07-12T23:43:31.398Z,19.00
2018-07-12T23:46:01.175Z,19.00
2018-07-12T23:48:31.235Z,19.10
2018-07-12T23:51:00.638Z,19.00
2018-07-12T23:53:30.186Z,19.00
2018-07-12T23:56:00.224Z,18.90
2018-07-12T23:58:29.728Z,18.90
